createdAt,value
2022-08-31T00:01:58.464Z,21.26
2022-08-31T00:04:06.489Z,21.12
2022-08-31T00:06:08.276Z,21.01
2022-08-31T00:08:10.122Z,20.95
2022-08-31T00:10:18.344Z,20.96
2022-08-31T00:12:20.373Z,21.05
2022-08-31T00:14:22.135Z,21.13
2022-08-31T00:16:24.237Z,21.21
2022-08-31T00:18:26.038Z,21.26
2022-08-31T00:20:33.293Z,21.27
2022-08-31T00:22:36.256Z,21.29
2022-08-31T00:24:37.984Z,21.32
2022-08-31T00:26:40.407Z,21.36
2022-08-31T00:28:42.335Z,21.41
2022-08-31T00:30:45.271Z,21.45
2022-08-31T00:32:47.012Z,21.48
2022-08-31T00:34:49.744Z,21.50
2022-08-31T00:36:51.403Z,21.54
2022-08-31T00:38:54.222Z,21.54
2022-08-31T00:40:55.881Z,21.45
2022-08-31T00:42:59.360Z,21.18
2022-08-31T00:45:01.072Z,21.00
2022-08-31T00:47:02.899Z,20.96
2022-08-31T00:49:18.103Z,21.01
2022-08-31T00:51:19.901Z,21.02
2022-08-31T00:53:21.574Z,20.92
2022-08-31T00:55:27.999Z,20.90
2022-08-31T00:57:34.656Z,20.65
2022-08-31T00:59:37.301Z,20.64
2022-08-31T01:01:38.967Z,20.72
2022-08-31T01:03:41.200Z,20.78
2022-08-31T01:05:42.997Z,20.83
2022-08-31T01:07:47.786Z,20.89
2022-08-31T01:09:55.533Z,20.99
2022-08-31T01:11:57.970Z,21.10
2022-08-31T01:14:00.336Z,21.15
2022-08-31T01:16:07.267Z,21.21
2022-08-31T01:18:09.247Z,21.24
2022-08-31T01:20:25.855Z,21.28
2022-08-31T01:22:30.445Z,21.28
2022-08-31T01:24:33.081Z,21.27
2022-08-31T01:26:34.885Z,21.25
2022-08-31T01:28:37.085Z,21.18
2022-08-31T01:30:40.306Z,21.02
2022-08-31T01:32:42.100Z,20.83
2022-08-31T01:34:43.877Z,20.85
2022-08-31T01:36:48.017Z,20.91
2022-08-31T01:38:53.173Z,20.99
2022-08-31T01:40:57.840Z,21.05
2022-08-31T01:42:59.508Z,21.04
2022-08-31T01:45:01.276Z,20.99
2022-08-31T01:47:03.162Z,21.02
2022-08-31T01:49:04.968Z,21.06
2022-08-31T01:51:07.037Z,21.06
2022-08-31T01:53:09.482Z,21.04
2022-08-31T01:55:11.480Z,21.05
2022-08-31T01:57:15.716Z,21.06
2022-08-31T01:59:20.002Z,21.08
2022-08-31T02:01:34.371Z,21.07
2022-08-31T02:03:36.598Z,21.01
2022-08-31T02:05:38.861Z,21.02
2022-08-31T02:07:41.218Z,21.01
2022-08-31T02:09:42.970Z,20.96
2022-08-31T02:11:44.836Z,20.96
2022-08-31T02:13:46.619Z,20.91
2022-08-31T02:15:48.378Z,20.68
2022-08-31T02:17:50.111Z,20.44
2022-08-31T02:19:54.493Z,20.10
2022-08-31T02:21:56.373Z,19.88
2022-08-31T02:23:58.069Z,19.81
2022-08-31T02:26:00.002Z,19.91
2022-08-31T02:28:01.819Z,20.03
2022-08-31T02:30:10.936Z,20.19
2022-08-31T02:32:19.496Z,20.29
2022-08-31T02:34:22.080Z,20.41
2022-08-31T02:36:24.338Z,20.52
2022-08-31T02:38:27.435Z,20.61
2022-08-31T02:40:29.227Z,20.68
2022-08-31T02:42:33.011Z,20.71
2022-08-31T02:44:52.566Z,20.71
2022-08-31T02:46:54.428Z,20.42
2022-08-31T02:48:56.163Z,20.13
2022-08-31T02:51:04.756Z,20.11
2022-08-31T02:53:06.422Z,20.13
2022-08-31T02:55:08.118Z,20.21
2022-08-31T02:57:09.805Z,20.26
2022-08-31T02:59:11.481Z,20.34
2022-08-31T03:01:13.271Z,20.39
2022-08-31T03:03:15.666Z,20.37
2022-08-31T03:05:17.787Z,20.35
2022-08-31T03:07:19.533Z,20.36
2022-08-31T03:09:21.866Z,20.39
2022-08-31T03:11:23.607Z,20.20
2022-08-31T03:13:25.231Z,20.06
2022-08-31T03:15:28.704Z,19.91
2022-08-31T03:17:30.553Z,19.91
2022-08-31T03:19:32.173Z,19.95
2022-08-31T03:21:33.894Z,19.95
2022-08-31T03:23:36.367Z,19.95
2022-08-31T03:25:39.668Z,19.93
2022-08-31T03:27:41.470Z,19.94
2022-08-31T03:29:43.262Z,19.96
2022-08-31T03:31:44.924Z,20.04
2022-08-31T03:33:46.549Z,20.08
2022-08-31T03:35:48.213Z,20.14
2022-08-31T03:37:49.884Z,20.18
2022-08-31T03:39:51.734Z,20.22
2022-08-31T03:41:53.402Z,20.24
2022-08-31T03:43:55.662Z,20.24
2022-08-31T03:45:57.391Z,20.24
2022-08-31T03:47:59.733Z,20.23
2022-08-31T03:50:04.021Z,20.20
2022-08-31T03:52:06.065Z,19.82
2022-08-31T03:54:08.476Z,19.64
2022-08-31T03:56:10.168Z,19.40
2022-08-31T03:58:12.224Z,19.37
2022-08-31T04:00:14.370Z,19.42
2022-08-31T04:02:16.053Z,19.20
2022-08-31T04:04:17.810Z,18.79
2022-08-31T04:06:19.670Z,18.58
2022-08-31T04:08:21.947Z,18.28
2022-08-31T04:10:23.668Z,18.07
2022-08-31T04:12:25.371Z,17.88
2022-08-31T04:14:27.056Z,17.62
2022-08-31T04:16:28.771Z,17.55
2022-08-31T04:18:30.441Z,17.57
2022-08-31T04:20:40.674Z,17.59
2022-08-31T04:22:42.374Z,17.58
2022-08-31T04:24:44.027Z,17.78
2022-08-31T04:26:45.753Z,17.65
2022-08-31T04:28:47.948Z,17.77
2022-08-31T04:30:50.403Z,18.04
2022-08-31T04:32:53.377Z,18.29
2022-08-31T04:34:56.527Z,18.34
2022-08-31T04:36:58.425Z,18.34
2022-08-31T04:39:02.225Z,18.35
2022-08-31T04:41:09.945Z,18.48
2022-08-31T04:43:11.758Z,18.58
2022-08-31T04:45:14.279Z,18.70
2022-08-31T04:47:15.977Z,18.80
2022-08-31T04:49:17.926Z,18.93
2022-08-31T04:51:28.693Z,19.09
2022-08-31T04:53:30.458Z,19.27
2022-08-31T04:55:32.335Z,19.48
2022-08-31T04:57:35.644Z,19.70
2022-08-31T04:59:37.385Z,19.88
2022-08-31T05:01:43.664Z,20.02
2022-08-31T05:03:45.490Z,20.13
2022-08-31T05:05:49.196Z,20.24
2022-08-31T05:07:51.040Z,20.35
2022-08-31T05:09:53.260Z,20.40
2022-08-31T05:11:55.671Z,20.43
2022-08-31T05:13:58.798Z,20.36
2022-08-31T05:16:00.546Z,20.22
2022-08-31T05:18:02.641Z,20.23
2022-08-31T05:20:06.016Z,20.37
2022-08-31T05:22:07.675Z,20.51
2022-08-31T05:24:12.137Z,20.65
2022-08-31T05:26:26.450Z,20.79
2022-08-31T05:28:28.411Z,20.94
2022-08-31T05:30:30.184Z,21.00
2022-08-31T05:32:31.959Z,21.04
2022-08-31T05:34:35.747Z,20.85
2022-08-31T05:36:37.458Z,20.74
2022-08-31T05:38:40.057Z,20.68
2022-08-31T05:40:41.722Z,20.62
2022-08-31T05:42:43.489Z,20.62
2022-08-31T05:44:45.124Z,20.76
2022-08-31T05:46:54.795Z,20.95
2022-08-31T05:49:06.789Z,21.22
2022-08-31T05:51:12.657Z,21.42
2022-08-31T05:53:15.201Z,21.58
2022-08-31T05:55:17.190Z,21.74
2022-08-31T05:57:20.006Z,21.81
2022-08-31T05:59:23.172Z,21.93
2022-08-31T06:01:37.800Z,22.05
2022-08-31T06:03:39.480Z,22.16
2022-08-31T06:05:42.150Z,22.26
2022-08-31T06:07:44.388Z,22.28
2022-08-31T06:09:46.088Z,22.11
2022-08-31T06:11:47.691Z,21.77
2022-08-31T06:13:51.370Z,21.87
2022-08-31T06:15:53.637Z,22.07
2022-08-31T06:17:55.545Z,22.25
2022-08-31T06:19:58.142Z,22.40
2022-08-31T06:21:59.806Z,22.42
2022-08-31T06:24:04.354Z,22.59
2022-08-31T06:26:07.530Z,22.53
2022-08-31T06:28:09.268Z,22.24
2022-08-31T06:30:11.351Z,21.91
2022-08-31T06:32:14.709Z,21.93
2022-08-31T06:34:18.661Z,22.07
2022-08-31T06:36:21.705Z,21.98
2022-08-31T06:38:23.429Z,21.93
2022-08-31T06:40:29.087Z,21.54
2022-08-31T06:42:30.861Z,21.48
2022-08-31T06:44:32.817Z,21.43
2022-08-31T06:46:36.169Z,21.65
2022-08-31T06:48:38.204Z,21.79
2022-08-31T06:50:41.680Z,21.94
2022-08-31T06:52:43.601Z,22.18
2022-08-31T06:54:45.211Z,22.13
2022-08-31T06:56:47.195Z,22.28
2022-08-31T06:58:53.775Z,22.49
2022-08-31T07:00:58.832Z,22.24
2022-08-31T07:03:21.095Z,22.27
2022-08-31T07:05:24.742Z,22.52
2022-08-31T07:07:26.561Z,22.62
2022-08-31T07:09:28.482Z,22.59
2022-08-31T07:11:40.989Z,22.26
2022-08-31T07:13:45.840Z,22.08
2022-08-31T07:15:47.596Z,22.18
2022-08-31T07:17:49.886Z,22.51
2022-08-31T07:19:51.917Z,22.78
2022-08-31T07:21:56.447Z,22.93
2022-08-31T07:24:01.147Z,23.10
2022-08-31T07:26:07.893Z,23.33
2022-08-31T07:28:11.877Z,23.45
2022-08-31T07:30:13.860Z,23.58
2022-08-31T07:32:16.074Z,23.46
2022-08-31T07:34:26.179Z,23.51
2022-08-31T07:36:27.879Z,23.60
2022-08-31T07:38:48.331Z,23.79
2022-08-31T07:41:08.451Z,23.66
2022-08-31T07:43:10.701Z,23.23
2022-08-31T07:45:23.277Z,23.44
2022-08-31T07:47:29.167Z,23.68
2022-08-31T07:49:30.791Z,23.81
2022-08-31T07:51:32.496Z,23.75
2022-08-31T07:53:41.561Z,23.86
2022-08-31T07:55:45.821Z,24.01
2022-08-31T07:57:47.679Z,23.69
2022-08-31T07:59:54.762Z,23.89
2022-08-31T08:01:56.703Z,23.91
2022-08-31T08:04:02.168Z,23.67
2022-08-31T08:06:06.373Z,23.66
2022-08-31T08:08:13.908Z,23.86
2022-08-31T08:10:21.465Z,24.08
2022-08-31T08:12:25.320Z,24.30
2022-08-31T08:14:30.190Z,24.55
2022-08-31T08:16:32.839Z,24.65
2022-08-31T08:18:34.989Z,24.62
2022-08-31T08:20:38.757Z,24.56
2022-08-31T08:22:53.974Z,24.62
2022-08-31T08:24:59.251Z,24.65
2022-08-31T08:27:01.121Z,24.49
2022-08-31T08:29:06.214Z,24.64
2022-08-31T08:31:13.583Z,24.62
2022-08-31T08:33:15.556Z,24.91
2022-08-31T08:35:17.442Z,25.21
2022-08-31T08:37:31.051Z,25.47
2022-08-31T08:39:43.055Z,25.68
2022-08-31T08:41:47.069Z,25.83
2022-08-31T08:43:57.354Z,25.66
2022-08-31T08:46:15.211Z,25.17
2022-08-31T08:48:27.797Z,24.76
2022-08-31T08:50:31.179Z,24.71
2022-08-31T08:52:38.660Z,24.79
2022-08-31T08:54:46.361Z,25.00
2022-08-31T08:56:49.207Z,25.30
2022-08-31T08:58:51.281Z,25.48
2022-08-31T09:00:54.753Z,25.71
2022-08-31T09:03:07.353Z,25.87
2022-08-31T09:05:21.851Z,26.06
2022-08-31T09:07:56.547Z,26.29
2022-08-31T09:10:04.274Z,26.47
2022-08-31T09:12:20.867Z,26.53
2022-08-31T09:14:37.177Z,26.70
2022-08-31T09:17:01.298Z,26.46
2022-08-31T09:19:06.889Z,25.97
2022-08-31T09:21:31.101Z,25.88
2022-08-31T09:23:37.946Z,25.83
2022-08-31T09:25:52.196Z,25.99
2022-08-31T09:28:00.093Z,26.18
2022-08-31T09:30:03.172Z,26.45
2022-08-31T09:32:10.718Z,26.72
2022-08-31T09:34:31.520Z,26.91
2022-08-31T09:36:41.074Z,26.85
2022-08-31T09:38:47.148Z,27.05
2022-08-31T09:40:49.987Z,27.17
2022-08-31T09:43:10.925Z,27.02
2022-08-31T09:45:30.164Z,26.87
2022-08-31T09:47:51.618Z,26.75
2022-08-31T09:49:57.930Z,27.04
2022-08-31T09:52:45.139Z,27.31
2022-08-31T09:55:18.511Z,27.56
2022-08-31T09:57:48.860Z,27.65
2022-08-31T09:59:51.666Z,27.65
2022-08-31T10:01:54.193Z,27.71
2022-08-31T10:04:36.821Z,28.02
2022-08-31T10:07:14.310Z,27.96
2022-08-31T10:09:23.217Z,27.71
2022-08-31T10:11:29.323Z,27.83
2022-08-31T10:13:38.625Z,27.70
2022-08-31T10:15:54.938Z,27.63
2022-08-31T10:18:03.283Z,27.28
2022-08-31T10:20:16.657Z,26.83
2022-08-31T10:22:28.561Z,26.89
2022-08-31T10:24:38.981Z,27.15
2022-08-31T10:26:47.612Z,27.39
2022-08-31T10:28:52.595Z,27.65
2022-08-31T10:31:31.708Z,27.84
2022-08-31T10:34:02.293Z,28.06
2022-08-31T10:36:04.530Z,27.88
2022-08-31T10:38:21.389Z,27.36
2022-08-31T10:40:29.317Z,25.86
2022-08-31T10:42:38.423Z,24.92
2022-08-31T10:44:57.348Z,24.51
2022-08-31T10:47:02.938Z,24.58
2022-08-31T10:49:05.520Z,24.44
2022-08-31T10:51:23.304Z,24.30
2022-08-31T10:53:34.939Z,24.28
2022-08-31T10:56:14.265Z,24.11
2022-08-31T10:58:58.092Z,24.10
2022-08-31T11:01:29.400Z,24.10
2022-08-31T11:04:09.288Z,24.00
2022-08-31T11:06:25.276Z,23.81
2022-08-31T11:08:49.750Z,23.68
2022-08-31T11:10:53.692Z,23.71
2022-08-31T11:12:59.241Z,23.67
2022-08-31T11:15:16.276Z,23.67
2022-08-31T11:17:55.613Z,23.51
2022-08-31T11:20:28.279Z,23.48
2022-08-31T11:22:46.235Z,23.49
2022-08-31T11:24:56.251Z,23.51
2022-08-31T11:27:06.019Z,23.55
2022-08-31T11:29:46.656Z,23.58
2022-08-31T11:31:49.913Z,23.68
2022-08-31T11:34:25.794Z,23.75
2022-08-31T11:36:42.547Z,23.77
2022-08-31T11:38:54.568Z,23.81
2022-08-31T11:41:03.790Z,23.78
2022-08-31T11:43:06.278Z,23.81
2022-08-31T11:45:13.957Z,23.81
2022-08-31T11:47:27.966Z,23.88
2022-08-31T11:49:36.847Z,23.92
2022-08-31T11:51:46.013Z,23.98
2022-08-31T11:53:52.906Z,24.06
2022-08-31T11:55:59.693Z,24.12
2022-08-31T11:58:07.285Z,24.20
2022-08-31T12:00:20.329Z,24.25
2022-08-31T12:02:23.192Z,24.32
2022-08-31T12:04:46.156Z,24.41
2022-08-31T12:06:51.069Z,24.49
2022-08-31T12:09:02.418Z,24.57
2022-08-31T12:11:18.653Z,24.65
2022-08-31T12:13:31.015Z,24.77
2022-08-31T12:16:01.355Z,24.87
2022-08-31T12:18:09.069Z,24.96
2022-08-31T12:20:29.526Z,25.00
2022-08-31T12:23:30.809Z,24.92
2022-08-31T12:25:36.451Z,24.99
2022-08-31T12:27:38.052Z,25.11
2022-08-31T12:29:41.188Z,25.20
2022-08-31T12:31:44.192Z,25.30
2022-08-31T12:33:54.414Z,25.40
2022-08-31T12:36:15.651Z,25.46
2022-08-31T12:38:19.981Z,25.48
2022-08-31T12:40:24.276Z,25.47
2022-08-31T12:42:27.020Z,25.46
2022-08-31T12:44:39.337Z,25.50
2022-08-31T12:46:49.659Z,25.51
2022-08-31T12:49:11.413Z,25.57
2022-08-31T12:51:34.183Z,25.61
2022-08-31T12:54:03.543Z,25.52
2022-08-31T12:56:14.015Z,25.49
2022-08-31T12:58:56.972Z,25.47
2022-08-31T13:01:09.479Z,25.14
2022-08-31T13:03:24.902Z,25.03
2022-08-31T13:05:32.540Z,24.88
2022-08-31T13:07:35.625Z,24.78
2022-08-31T13:09:37.882Z,24.85
2022-08-31T13:11:45.029Z,24.93
2022-08-31T13:13:46.687Z,25.00
2022-08-31T13:15:48.671Z,25.02
2022-08-31T13:17:50.809Z,25.10
2022-08-31T13:19:56.555Z,25.10
2022-08-31T13:22:05.338Z,25.16
2022-08-31T13:24:09.220Z,25.20
2022-08-31T13:26:25.067Z,25.24
2022-08-31T13:28:30.115Z,25.35
2022-08-31T13:30:34.316Z,25.41
2022-08-31T13:32:36.771Z,25.50
2022-08-31T13:34:44.207Z,25.51
2022-08-31T13:36:53.789Z,25.51
2022-08-31T13:38:56.102Z,25.52
2022-08-31T13:40:57.772Z,25.54
2022-08-31T13:43:00.601Z,25.60
2022-08-31T13:45:07.740Z,25.70
2022-08-31T13:47:35.176Z,25.83
2022-08-31T13:49:49.122Z,25.93
2022-08-31T13:51:50.949Z,25.68
2022-08-31T13:53:55.565Z,25.59
2022-08-31T13:55:58.335Z,25.64
2022-08-31T13:58:05.829Z,25.65
2022-08-31T14:00:36.883Z,25.38
2022-08-31T14:02:39.545Z,25.19
2022-08-31T14:04:44.323Z,24.90
2022-08-31T14:06:50.782Z,24.76
2022-08-31T14:09:05.183Z,24.57
2022-08-31T14:11:14.370Z,24.54
2022-08-31T14:13:20.916Z,24.28
2022-08-31T14:15:50.378Z,24.07
2022-08-31T14:20:33.827Z,23.52
2022-08-31T14:22:36.513Z,23.39
2022-08-31T14:26:44.565Z,23.44
2022-08-31T14:28:49.706Z,23.55
2022-08-31T14:30:51.595Z,23.68
2022-08-31T14:32:54.154Z,23.59
2022-08-31T14:34:57.907Z,23.57
2022-08-31T14:37:19.958Z,23.62
2022-08-31T14:39:27.076Z,23.08
2022-08-31T14:41:31.318Z,22.81
2022-08-31T14:43:34.377Z,22.80
2022-08-31T14:45:37.627Z,22.82
2022-08-31T14:47:44.169Z,22.77
2022-08-31T14:49:46.134Z,22.82
2022-08-31T14:51:47.800Z,22.97
2022-08-31T14:53:51.896Z,23.15
2022-08-31T14:55:53.521Z,23.31
2022-08-31T14:58:08.357Z,23.49
2022-08-31T15:00:11.921Z,23.57
2022-08-31T15:02:14.015Z,23.66
2022-08-31T15:04:18.597Z,23.73
2022-08-31T15:06:20.779Z,23.61
2022-08-31T15:08:28.349Z,23.65
2022-08-31T15:10:41.218Z,23.61
2022-08-31T15:12:43.089Z,23.63
2022-08-31T15:14:45.272Z,23.63
2022-08-31T15:16:48.743Z,23.66
2022-08-31T15:18:54.408Z,23.60
2022-08-31T15:20:56.152Z,23.56
2022-08-31T15:22:58.021Z,23.48
2022-08-31T15:24:59.920Z,23.12
2022-08-31T15:27:01.738Z,22.55
2022-08-31T15:29:05.038Z,22.26
2022-08-31T15:31:11.581Z,22.10
2022-08-31T15:33:13.600Z,22.16
2022-08-31T15:35:19.026Z,22.25
2022-08-31T15:37:21.713Z,22.32
2022-08-31T15:39:32.430Z,22.46
2022-08-31T15:41:37.268Z,22.26
2022-08-31T15:43:42.235Z,22.32
2022-08-31T15:45:44.842Z,22.44
2022-08-31T15:48:05.353Z,22.56
2022-08-31T15:50:07.711Z,22.70
2022-08-31T15:52:10.219Z,22.69
2022-08-31T15:54:22.258Z,22.75
2022-08-31T15:56:25.411Z,22.81
2022-08-31T15:58:31.827Z,22.89
2022-08-31T16:00:33.964Z,22.99
2022-08-31T16:02:36.058Z,23.06
2022-08-31T16:04:43.453Z,22.92
2022-08-31T16:06:45.583Z,22.93
2022-08-31T16:08:50.250Z,23.01
2022-08-31T16:10:52.085Z,23.09
2022-08-31T16:12:53.899Z,23.18
2022-08-31T16:14:55.534Z,23.25
2022-08-31T16:17:00.014Z,23.27
2022-08-31T16:19:05.381Z,23.30
2022-08-31T16:21:07.517Z,23.36
2022-08-31T16:23:09.178Z,23.40
2022-08-31T16:25:13.169Z,23.42
2022-08-31T16:27:16.397Z,23.43
2022-08-31T16:29:24.807Z,23.46
2022-08-31T16:31:27.743Z,23.46
2022-08-31T16:33:29.467Z,23.48
2022-08-31T16:35:31.133Z,23.48
2022-08-31T16:37:33.601Z,23.47
2022-08-31T16:39:43.090Z,23.47
2022-08-31T16:41:45.853Z,23.48
2022-08-31T16:44:03.444Z,23.47
2022-08-31T16:46:37.392Z,23.48
2022-08-31T16:48:52.594Z,23.46
2022-08-31T16:50:54.266Z,23.44
2022-08-31T16:52:56.522Z,23.41
2022-08-31T16:54:58.149Z,23.38
2022-08-31T16:57:00.280Z,23.40
2022-08-31T16:59:02.234Z,23.40
2022-08-31T17:01:08.970Z,23.39
2022-08-31T17:03:10.726Z,23.38
2022-08-31T17:05:13.158Z,23.37
2022-08-31T17:07:16.625Z,23.37
2022-08-31T17:09:22.029Z,23.36
2022-08-31T17:11:26.730Z,23.36
2022-08-31T17:13:28.751Z,23.34
2022-08-31T17:15:30.566Z,23.30
2022-08-31T17:17:33.133Z,23.27
2022-08-31T17:19:36.840Z,23.24
2022-08-31T17:21:49.732Z,23.20
2022-08-31T17:23:56.440Z,23.17
2022-08-31T17:25:58.162Z,23.14
2022-08-31T17:28:07.623Z,23.14
2022-08-31T17:30:09.951Z,23.12
2022-08-31T17:32:13.828Z,23.10
2022-08-31T17:34:18.644Z,23.09
2022-08-31T17:36:21.524Z,23.07
2022-08-31T17:38:24.217Z,23.05
2022-08-31T17:40:25.947Z,23.04
2022-08-31T17:42:28.398Z,22.99
2022-08-31T17:44:30.975Z,22.90
2022-08-31T17:46:33.292Z,22.73
2022-08-31T17:48:37.961Z,22.67
2022-08-31T17:50:43.527Z,22.63
2022-08-31T17:52:45.715Z,22.63
2022-08-31T17:54:47.627Z,22.61
2022-08-31T17:56:53.541Z,22.62
2022-08-31T17:58:55.509Z,22.65
2022-08-31T18:00:59.765Z,22.61
2022-08-31T18:03:01.451Z,22.33
2022-08-31T18:05:09.487Z,21.80
2022-08-31T18:07:13.968Z,21.78
2022-08-31T18:09:17.510Z,21.80
2022-08-31T18:11:19.156Z,21.87
2022-08-31T18:13:24.261Z,21.83
2022-08-31T18:15:28.891Z,21.72
2022-08-31T18:17:30.599Z,21.51
2022-08-31T18:19:33.447Z,21.48
2022-08-31T18:21:35.114Z,21.44
2022-08-31T18:23:38.112Z,21.21
2022-08-31T18:25:40.919Z,21.01
2022-08-31T18:27:42.536Z,20.95
2022-08-31T18:29:45.141Z,20.99
2022-08-31T18:31:50.268Z,20.89
2022-08-31T18:33:52.253Z,20.72
2022-08-31T18:35:55.108Z,20.40
2022-08-31T18:37:58.061Z,20.34
2022-08-31T18:40:18.626Z,20.25
2022-08-31T18:42:40.149Z,20.41
2022-08-31T18:45:00.301Z,20.62
2022-08-31T18:47:05.987Z,20.78
2022-08-31T18:49:12.660Z,20.76
2022-08-31T18:51:17.697Z,20.80
2022-08-31T18:53:27.751Z,20.93
2022-08-31T18:55:31.808Z,21.10
2022-08-31T18:57:34.222Z,21.21
2022-08-31T18:59:48.533Z,21.24
2022-08-31T19:01:51.579Z,21.17
2022-08-31T19:03:53.349Z,21.17
2022-08-31T19:05:56.677Z,21.23
2022-08-31T19:08:00.694Z,21.30
2022-08-31T19:10:02.483Z,21.30
2022-08-31T19:12:05.044Z,21.31
2022-08-31T19:14:06.808Z,21.31
2022-08-31T19:16:15.585Z,21.31
2022-08-31T19:18:17.638Z,21.33
2022-08-31T19:20:19.383Z,21.31
2022-08-31T19:22:21.621Z,21.32
2022-08-31T19:24:23.889Z,21.23
2022-08-31T19:26:27.592Z,21.24
2022-08-31T19:28:29.207Z,21.23
2022-08-31T19:30:32.102Z,21.23
2022-08-31T19:32:34.179Z,21.27
2022-08-31T19:34:38.018Z,21.33
2022-08-31T19:36:41.723Z,21.37
2022-08-31T19:38:44.231Z,21.39
2022-08-31T19:40:46.581Z,21.41
2022-08-31T19:45:41.057Z,21.47
2022-08-31T19:47:38.590Z,21.50
2022-08-31T19:49:42.048Z,21.50
2022-08-31T19:51:56.166Z,21.48
2022-08-31T19:53:59.266Z,21.52
2022-08-31T19:56:01.606Z,21.53
2022-08-31T19:58:05.227Z,21.48
2022-08-31T20:00:10.267Z,21.50
2022-08-31T20:02:14.114Z,21.47
2022-08-31T20:04:17.191Z,21.46
2022-08-31T20:06:20.556Z,21.45
2022-08-31T20:08:22.220Z,21.41
2022-08-31T20:10:23.909Z,21.40
2022-08-31T20:12:31.887Z,21.40
2022-08-31T20:14:33.594Z,21.38
2022-08-31T20:16:41.765Z,21.38
2022-08-31T20:18:48.784Z,21.37
2022-08-31T20:20:51.024Z,21.37
2022-08-31T20:22:54.172Z,21.36
2022-08-31T20:24:55.818Z,21.37
2022-08-31T20:27:09.029Z,21.39
2022-08-31T20:29:13.809Z,21.40
2022-08-31T20:31:16.686Z,21.41
2022-08-31T20:33:19.012Z,21.42
2022-08-31T20:35:20.921Z,21.42
2022-08-31T20:37:24.660Z,21.40
2022-08-31T20:39:28.485Z,21.38
2022-08-31T20:41:32.212Z,21.39
2022-08-31T20:43:35.559Z,21.39
2022-08-31T20:45:38.617Z,21.36
2022-08-31T20:47:59.013Z,21.34
2022-08-31T20:50:02.500Z,21.32
2022-08-31T20:52:04.181Z,21.21
2022-08-31T20:54:06.306Z,20.91
2022-08-31T20:56:09.129Z,20.51
2022-08-31T20:58:10.844Z,20.31
2022-08-31T21:00:13.955Z,20.39
2022-08-31T21:02:16.741Z,20.55
2022-08-31T21:04:18.986Z,20.67
2022-08-31T21:06:25.419Z,20.79
2022-08-31T21:08:28.556Z,20.86
2022-08-31T21:10:37.468Z,20.93
2022-08-31T21:12:39.756Z,20.97
2022-08-31T21:14:45.567Z,20.98
2022-08-31T21:16:47.687Z,20.97
2022-08-31T21:18:49.624Z,20.98
2022-08-31T21:20:52.153Z,20.99
2022-08-31T21:22:53.957Z,20.99
2022-08-31T21:25:03.569Z,20.98
2022-08-31T21:27:08.075Z,20.98
2022-08-31T21:29:13.110Z,20.99
2022-08-31T21:31:27.633Z,20.99
2022-08-31T21:33:31.081Z,21.01
2022-08-31T21:35:32.767Z,21.00
2022-08-31T21:37:34.452Z,21.01
2022-08-31T21:39:37.039Z,21.01
2022-08-31T21:41:39.055Z,21.04
2022-08-31T21:43:40.753Z,21.06
2022-08-31T21:45:42.451Z,21.02
2022-08-31T21:47:44.079Z,21.02
2022-08-31T21:49:45.975Z,21.03
2022-08-31T21:51:52.792Z,21.02
2022-08-31T21:54:01.057Z,21.01
2022-08-31T21:56:04.064Z,21.00
2022-08-31T21:58:05.770Z,21.01
2022-08-31T22:00:14.080Z,21.00
2022-08-31T22:02:17.883Z,21.01
2022-08-31T22:04:21.075Z,20.96
2022-08-31T22:06:26.782Z,20.95
2022-08-31T22:08:29.541Z,20.92
2022-08-31T22:10:32.612Z,20.93
2022-08-31T22:12:34.344Z,20.94
2022-08-31T22:14:38.446Z,20.91
2022-08-31T22:16:41.028Z,20.93
2022-08-31T22:19:00.870Z,20.93
2022-08-31T22:21:05.220Z,20.97
2022-08-31T22:23:09.881Z,20.97
2022-08-31T22:25:12.169Z,20.95
2022-08-31T22:27:13.820Z,20.94
2022-08-31T22:29:23.760Z,20.94
2022-08-31T22:31:27.436Z,20.92
2022-08-31T22:33:29.455Z,20.91
2022-08-31T22:35:31.241Z,20.92
2022-08-31T22:37:35.290Z,20.89
2022-08-31T22:39:37.118Z,20.88
2022-08-31T22:41:41.851Z,20.86
2022-08-31T22:43:44.847Z,20.85
2022-08-31T22:45:48.670Z,20.83
2022-08-31T22:47:50.811Z,20.82
2022-08-31T22:49:52.491Z,20.83
2022-08-31T22:51:54.628Z,20.83
2022-08-31T22:53:56.727Z,20.84
2022-08-31T22:55:58.429Z,20.81
2022-08-31T22:58:00.023Z,20.77
2022-08-31T23:00:01.741Z,20.70
2022-08-31T23:02:04.564Z,20.66
2022-08-31T23:04:07.864Z,20.65
2022-08-31T23:06:12.347Z,20.63
2022-08-31T23:08:14.873Z,20.63
2022-08-31T23:10:18.772Z,20.62
2022-08-31T23:12:20.512Z,20.64
2022-08-31T23:14:22.529Z,20.62
2022-08-31T23:16:37.167Z,20.62
2022-08-31T23:18:41.943Z,20.53
2022-08-31T23:20:43.553Z,19.99
2022-08-31T23:22:48.634Z,19.54
2022-08-31T23:24:51.907Z,19.33
2022-08-31T23:26:53.713Z,19.39
2022-08-31T23:28:59.099Z,19.39
2022-08-31T23:31:00.858Z,19.46
2022-08-31T23:33:02.678Z,19.57
2022-08-31T23:35:05.616Z,19.70
2022-08-31T23:37:09.101Z,19.66
2022-08-31T23:39:10.781Z,19.64
2022-08-31T23:41:13.737Z,19.67
2022-08-31T23:43:20.338Z,19.65
2022-08-31T23:45:22.090Z,19.69
2022-08-31T23:47:29.051Z,19.74
2022-08-31T23:49:30.939Z,19.78
2022-08-31T23:51:33.438Z,19.83
2022-08-31T23:53:35.704Z,19.86
2022-08-31T23:55:42.876Z,19.84
2022-08-31T23:57:47.590Z,19.90
2022-08-31T23:59:52.813Z,19.94
